createdAt,value
2018-05-08T00:00:33.027Z,62.08
2018-05-08T00:01:41.097Z,61.03
2018-05-08T00:02:49.203Z,61.41
2018-05-08T00:03:57.236Z,61.69
2018-05-08T00:05:05.278Z,61.32
2018-05-08T00:06:13.341Z,60.46
2018-05-08T00:07:21.406Z,60.84
2018-05-08T00:08:29.476Z,61.51
2018-05-08T00:09:37.534Z,60.84
2018-05-08T00:10:45.593Z,61.98
2018-05-08T00:11:53.657Z,62.18
2018-05-08T00:13:01.735Z,62.65
2018-05-08T00:14:09.763Z,62.65
2018-05-08T00:15:17.856Z,62.62
2018-05-08T00:16:25.920Z,62.52
2018-05-08T00:17:33.959Z,61.47
2018-05-08T00:18:42.027Z,62.08
2018-05-08T00:19:50.173Z,62.65
2018-05-08T00:20:58.156Z,63.29
2018-05-08T00:22:06.242Z,63.20
2018-05-08T00:23:14.285Z,62.43
2018-05-08T00:24:22.330Z,62.43
2018-05-08T00:25:30.419Z,61.95
2018-05-08T00:26:38.455Z,62.81
2018-05-08T00:27:46.536Z,62.05
2018-05-08T00:28:54.602Z,63.00
2018-05-08T00:30:02.654Z,62.62
2018-05-08T00:31:10.729Z,61.38
2018-05-08T00:32:18.780Z,62.08
2018-05-08T00:33:26.853Z,61.13
2018-05-08T00:34:34.920Z,62.18
2018-05-08T00:35:42.965Z,61.41
2018-05-08T00:36:51.038Z,62.43
2018-05-08T00:37:59.089Z,63.42
2018-05-08T00:39:07.162Z,62.71
2018-05-08T00:40:15.231Z,62.91
2018-05-08T00:41:23.276Z,63.00
2018-05-08T00:42:31.339Z,63.29
2018-05-08T00:43:39.417Z,62.62
2018-05-08T00:44:47.472Z,62.43
2018-05-08T00:45:55.547Z,63.00
2018-05-08T00:47:03.589Z,62.24
2018-05-08T00:48:11.639Z,62.71
2018-05-08T00:49:19.731Z,62.34
2018-05-08T00:50:27.773Z,62.24
2018-05-08T00:51:35.853Z,63.86
2018-05-08T00:52:43.911Z,64.05
2018-05-08T00:53:51.964Z,63.20
2018-05-08T00:55:00.051Z,63.67
2018-05-08T00:56:08.099Z,63.76
2018-05-08T00:57:16.165Z,63.29
2018-05-08T00:58:24.236Z,64.53
2018-05-08T00:59:32.292Z,64.72
2018-05-08T01:00:40.361Z,64.43
2018-05-08T01:01:48.399Z,63.76
2018-05-08T01:02:56.473Z,64.72
2018-05-08T01:04:04.555Z,64.81
2018-05-08T01:05:12.591Z,64.81
2018-05-08T01:06:20.663Z,64.81
2018-05-08T01:07:28.737Z,64.15
2018-05-08T01:08:36.774Z,64.43
2018-05-08T01:09:44.851Z,64.05
2018-05-08T01:10:52.930Z,63.76
2018-05-08T01:12:00.988Z,62.71
2018-05-08T01:13:09.056Z,62.34
2018-05-08T01:14:17.116Z,62.52
2018-05-08T01:15:25.164Z,63.57
2018-05-08T01:16:33.237Z,63.76
2018-05-08T01:17:41.285Z,63.67
2018-05-08T01:18:49.342Z,64.25
2018-05-08T01:19:57.395Z,63.48
2018-05-08T01:21:05.476Z,64.53
2018-05-08T01:22:13.531Z,64.34
2018-05-08T01:23:21.586Z,63.20
2018-05-08T01:24:29.672Z,64.25
2018-05-08T01:25:37.728Z,64.15
2018-05-08T01:26:45.781Z,64.05
2018-05-08T01:27:53.849Z,63.96
2018-05-08T01:29:01.866Z,64.34
2018-05-08T01:30:09.987Z,64.81
2018-05-08T01:31:18.036Z,64.53
2018-05-08T01:32:26.092Z,64.81
2018-05-08T01:33:34.159Z,64.34
2018-05-08T01:34:42.211Z,65.10
2018-05-08T01:35:50.296Z,64.81
2018-05-08T01:36:58.342Z,63.76
2018-05-08T01:38:06.403Z,63.96
2018-05-08T01:39:14.454Z,64.72
2018-05-08T01:40:22.535Z,64.72
2018-05-08T01:41:30.592Z,64.91
2018-05-08T01:42:38.647Z,64.53
2018-05-08T01:43:46.713Z,63.76
2018-05-08T01:44:54.771Z,63.29
2018-05-08T01:46:02.840Z,63.70
2018-05-08T01:47:10.893Z,63.70
2018-05-08T01:48:18.958Z,63.39
2018-05-08T01:49:27.031Z,63.20
2018-05-08T01:50:35.092Z,62.94
2018-05-08T01:51:43.177Z,63.23
2018-05-08T01:52:51.222Z,63.70
2018-05-08T01:53:59.271Z,63.70
2018-05-08T01:55:07.351Z,62.43
2018-05-08T01:56:15.404Z,62.75
2018-05-08T01:57:23.471Z,62.37
2018-05-08T01:58:31.519Z,63.42
2018-05-08T01:59:39.602Z,62.94
2018-05-08T02:00:47.662Z,63.23
2018-05-08T02:01:55.729Z,62.84
2018-05-08T02:03:03.808Z,62.65
2018-05-08T02:04:11.822Z,62.65
2018-05-08T02:05:19.898Z,63.89
2018-05-08T02:06:27.978Z,63.60
2018-05-08T02:07:36.036Z,63.76
2018-05-08T02:08:44.090Z,65.10
2018-05-08T02:09:52.135Z,64.43
2018-05-08T02:11:00.225Z,63.86
2018-05-08T02:12:08.255Z,64.25
2018-05-08T02:13:16.331Z,63.57
2018-05-08T02:14:24.410Z,64.05
2018-05-08T02:15:32.455Z,63.96
2018-05-08T02:16:40.538Z,64.81
2018-05-08T02:17:48.586Z,65.10
2018-05-08T02:18:56.653Z,64.43
2018-05-08T02:20:04.685Z,64.72
2018-05-08T02:21:12.791Z,64.91
2018-05-08T02:22:20.840Z,64.62
2018-05-08T02:23:28.890Z,64.91
2018-05-08T02:24:36.951Z,64.25
2018-05-08T02:25:45.025Z,63.57
2018-05-08T02:26:53.094Z,63.48
2018-05-08T02:28:01.147Z,63.96
2018-05-08T02:29:09.222Z,64.62
2018-05-08T02:30:17.285Z,63.67
2018-05-08T02:31:25.331Z,64.15
2018-05-08T02:32:33.386Z,64.43
2018-05-08T02:33:41.446Z,64.43
2018-05-08T02:34:49.535Z,63.67
2018-05-08T02:35:57.576Z,63.76
2018-05-08T02:37:05.639Z,64.53
2018-05-08T02:38:13.723Z,62.91
2018-05-08T02:39:21.759Z,62.15
2018-05-08T02:40:29.836Z,63.29
2018-05-08T02:41:37.907Z,63.48
2018-05-08T02:42:45.959Z,63.39
2018-05-08T02:43:54.009Z,62.62
2018-05-08T02:45:02.064Z,63.10
2018-05-08T02:46:10.123Z,63.10
2018-05-08T02:47:18.186Z,63.10
2018-05-08T02:48:26.267Z,63.10
2018-05-08T02:49:34.344Z,63.76
2018-05-08T02:50:42.380Z,64.25
2018-05-08T02:51:50.461Z,64.43
2018-05-08T02:52:58.535Z,64.62
2018-05-08T02:54:06.577Z,64.72
2018-05-08T02:55:14.655Z,64.05
2018-05-08T02:56:22.709Z,64.72
2018-05-08T02:57:30.765Z,64.21
2018-05-08T02:58:38.834Z,64.59
2018-05-08T02:59:46.900Z,64.97
2018-05-08T03:00:54.956Z,64.31
2018-05-08T03:02:03.016Z,64.69
2018-05-08T03:03:11.104Z,65.55
2018-05-08T03:04:19.159Z,64.78
2018-05-08T03:05:27.201Z,64.69
2018-05-08T03:06:35.260Z,65.17
2018-05-08T03:07:43.339Z,64.69
2018-05-08T03:08:51.378Z,65.93
2018-05-08T03:09:59.467Z,64.88
2018-05-08T03:11:07.527Z,65.36
2018-05-08T03:12:15.575Z,65.93
2018-05-08T03:13:23.635Z,65.74
2018-05-08T03:14:31.670Z,66.41
2018-05-08T03:15:39.763Z,66.50
2018-05-08T03:16:47.839Z,66.09
2018-05-08T03:17:55.880Z,66.98
2018-05-08T03:19:03.977Z,66.28
2018-05-08T03:20:11.988Z,66.78
2018-05-08T03:21:20.078Z,66.31
2018-05-08T03:22:28.134Z,66.66
2018-05-08T03:23:36.198Z,67.23
2018-05-08T03:24:44.251Z,66.75
2018-05-08T03:25:52.315Z,66.18
2018-05-08T03:27:00.384Z,65.89
2018-05-08T03:28:08.434Z,65.74
2018-05-08T03:29:16.486Z,66.56
2018-05-08T03:30:24.576Z,66.60
2018-05-08T03:31:32.643Z,66.85
2018-05-08T03:32:40.790Z,66.56
2018-05-08T03:33:48.782Z,66.18
2018-05-08T03:34:56.801Z,67.33
2018-05-08T03:36:04.886Z,66.47
2018-05-08T03:37:12.924Z,66.47
2018-05-08T03:38:21.004Z,66.28
2018-05-08T03:39:29.063Z,65.99
2018-05-08T03:40:37.144Z,65.93
2018-05-08T03:41:45.178Z,66.09
2018-05-08T03:42:53.241Z,66.18
2018-05-08T03:44:01.295Z,66.94
2018-05-08T03:45:09.355Z,66.47
2018-05-08T03:46:17.415Z,66.47
2018-05-08T03:47:25.494Z,67.71
2018-05-08T03:48:33.543Z,67.99
2018-05-08T03:49:41.623Z,66.47
2018-05-08T03:50:49.681Z,66.38
2018-05-08T03:51:57.739Z,66.75
2018-05-08T03:53:05.811Z,66.75
2018-05-08T03:54:13.924Z,66.56
2018-05-08T03:55:21.899Z,66.47
2018-05-08T03:56:29.982Z,66.47
2018-05-08T03:57:38.044Z,66.85
2018-05-08T03:58:46.118Z,67.71
2018-05-08T03:59:54.178Z,66.85
2018-05-08T04:01:02.216Z,66.66
2018-05-08T04:02:10.286Z,67.23
2018-05-08T04:03:18.359Z,66.94
2018-05-08T04:04:26.420Z,67.90
2018-05-08T04:05:34.485Z,67.99
2018-05-08T04:06:42.549Z,68.18
2018-05-08T04:07:50.603Z,67.99
2018-05-08T04:08:58.652Z,68.47
2018-05-08T04:10:07.215Z,67.90
2018-05-08T04:11:14.780Z,68.18
2018-05-08T04:12:22.845Z,67.99
2018-05-08T04:13:30.916Z,67.23
2018-05-08T04:14:38.976Z,68.09
2018-05-08T04:15:47.047Z,68.38
2018-05-08T04:16:55.101Z,68.24
2018-05-08T04:18:03.207Z,68.76
2018-05-08T04:19:11.206Z,69.52
2018-05-08T04:20:19.277Z,69.29
2018-05-08T04:21:27.330Z,69.96
2018-05-08T04:22:35.427Z,69.68
2018-05-08T04:23:43.466Z,69.48
2018-05-08T04:24:51.515Z,70.53
2018-05-08T04:25:59.575Z,69.87
2018-05-08T04:27:07.645Z,70.44
2018-05-08T04:28:15.690Z,70.06
2018-05-08T04:29:24.131Z,71.01
2018-05-08T04:30:31.903Z,70.25
2018-05-08T04:31:40.106Z,69.87
2018-05-08T04:32:47.952Z,70.92
2018-05-08T04:33:56.026Z,69.87
2018-05-08T04:35:04.096Z,71.11
2018-05-08T04:36:12.112Z,71.68
2018-05-08T04:37:20.634Z,70.53
2018-05-08T04:38:28.266Z,69.87
2018-05-08T04:39:36.364Z,69.68
2018-05-08T04:40:45.048Z,68.91
2018-05-08T04:41:52.427Z,69.39
2018-05-08T04:43:00.500Z,69.68
2018-05-08T04:44:08.669Z,69.77
2018-05-08T04:45:16.643Z,69.39
2018-05-08T04:46:24.732Z,68.82
2018-05-08T04:47:32.783Z,68.53
2018-05-08T04:48:41.308Z,67.77
2018-05-08T04:49:49.476Z,67.20
2018-05-08T04:50:57.123Z,67.48
2018-05-08T04:52:05.086Z,67.80
2018-05-08T04:53:13.049Z,67.14
2018-05-08T04:54:21.122Z,65.70
2018-05-08T04:55:29.648Z,66.18
2018-05-08T04:56:37.264Z,65.80
2018-05-08T04:57:45.316Z,66.47
2018-05-08T04:58:53.390Z,66.18
2018-05-08T05:00:01.433Z,67.23
2018-05-08T05:01:09.485Z,67.71
2018-05-08T05:02:17.572Z,66.09
2018-05-08T05:03:26.276Z,65.23
2018-05-08T05:04:34.856Z,65.89
2018-05-08T05:05:41.739Z,66.66
2018-05-08T05:06:49.839Z,66.75
2018-05-08T05:07:57.881Z,65.89
2018-05-08T05:09:05.931Z,65.80
2018-05-08T05:10:14.024Z,66.47
2018-05-08T05:11:22.257Z,64.75
2018-05-08T05:12:30.124Z,64.59
2018-05-08T05:13:38.185Z,64.37
2018-05-08T05:14:46.247Z,65.07
2018-05-08T05:15:54.570Z,63.26
2018-05-08T05:17:02.608Z,63.07
2018-05-08T05:18:10.431Z,64.21
2018-05-08T05:19:18.712Z,63.83
2018-05-08T05:20:26.546Z,62.49
2018-05-08T05:21:34.599Z,62.97
2018-05-08T05:22:42.647Z,62.68
2018-05-08T05:23:50.737Z,61.57
2018-05-08T05:24:58.795Z,61.76
2018-05-08T05:26:06.855Z,62.34
2018-05-08T05:27:14.919Z,62.15
2018-05-08T05:28:22.987Z,61.95
2018-05-08T05:29:31.060Z,61.86
2018-05-08T05:30:39.088Z,61.38
2018-05-08T05:31:47.175Z,61.66
2018-05-08T05:32:55.246Z,61.57
2018-05-08T05:34:03.307Z,61.47
2018-05-08T05:35:11.341Z,61.19
2018-05-08T05:36:19.426Z,61.76
2018-05-08T05:37:27.473Z,62.24
2018-05-08T05:38:35.541Z,61.66
2018-05-08T05:39:43.591Z,61.95
2018-05-08T05:40:51.656Z,61.47
2018-05-08T05:41:59.736Z,60.90
2018-05-08T05:43:07.777Z,61.00
2018-05-08T05:44:15.845Z,61.10
2018-05-08T05:45:23.938Z,61.66
2018-05-08T05:46:31.980Z,61.00
2018-05-08T05:47:40.052Z,61.38
2018-05-08T05:48:48.143Z,61.10
2018-05-08T05:49:56.178Z,60.90
2018-05-08T05:51:04.240Z,61.19
2018-05-08T05:52:12.293Z,61.00
2018-05-08T05:53:20.395Z,61.57
2018-05-08T05:54:28.434Z,61.32
2018-05-08T05:55:36.476Z,60.55
2018-05-08T05:56:44.535Z,61.10
2018-05-08T05:57:52.595Z,60.64
2018-05-08T05:59:00.680Z,60.55
2018-05-08T06:00:08.779Z,61.32
2018-05-08T06:01:16.780Z,61.41
2018-05-08T06:02:24.863Z,60.46
2018-05-08T06:03:32.903Z,59.88
2018-05-08T06:04:40.994Z,61.03
2018-05-08T06:05:49.077Z,60.64
2018-05-08T06:06:57.123Z,61.03
2018-05-08T06:08:05.177Z,62.18
2018-05-08T06:09:13.229Z,61.32
2018-05-08T06:10:21.286Z,61.98
2018-05-08T06:11:29.361Z,61.03
2018-05-08T06:12:37.437Z,60.55
2018-05-08T06:13:45.491Z,60.55
2018-05-08T06:14:53.539Z,60.55
2018-05-08T06:16:01.602Z,60.07
2018-05-08T06:17:09.661Z,60.58
2018-05-08T06:18:17.747Z,59.69
2018-05-08T06:19:25.782Z,59.78
2018-05-08T06:20:33.894Z,59.78
2018-05-08T06:21:41.912Z,60.55
2018-05-08T06:22:49.992Z,63.35
2018-05-08T06:23:58.053Z,62.49
2018-05-08T06:25:06.110Z,60.96
2018-05-08T06:26:14.187Z,60.30
2018-05-08T06:27:22.238Z,59.53
2018-05-08T06:28:30.397Z,59.15
2018-05-08T06:29:38.393Z,59.44
2018-05-08T06:30:46.402Z,61.54
2018-05-08T06:31:54.502Z,59.53
2018-05-08T06:33:02.545Z,59.81
2018-05-08T06:34:10.590Z,61.16
2018-05-08T06:35:18.657Z,58.95
2018-05-08T06:36:26.743Z,59.72
2018-05-08T06:37:34.827Z,61.16
2018-05-08T06:38:42.873Z,60.13
2018-05-08T06:39:50.950Z,58.61
2018-05-08T06:40:58.993Z,58.89
2018-05-08T06:42:07.060Z,59.56
2018-05-08T06:43:15.115Z,58.12
2018-05-08T06:44:23.261Z,58.89
2018-05-08T06:45:31.248Z,60.71
2018-05-08T06:46:39.342Z,59.37
2018-05-08T06:47:47.375Z,59.27
2018-05-08T06:48:55.458Z,60.04
2018-05-08T06:50:03.491Z,59.47
2018-05-08T06:51:11.546Z,60.23
2018-05-08T06:52:19.633Z,60.23
2018-05-08T06:53:27.683Z,59.01
2018-05-08T06:54:35.785Z,58.92
2018-05-08T06:55:43.834Z,60.45
2018-05-08T06:56:51.870Z,58.92
2018-05-08T06:57:59.957Z,59.30
2018-05-08T06:59:08.028Z,58.15
2018-05-08T07:00:16.085Z,58.06
2018-05-08T07:01:24.170Z,57.77
2018-05-08T07:02:32.208Z,57.77
2018-05-08T07:03:40.281Z,58.44
2018-05-08T07:04:48.359Z,57.97
2018-05-08T07:05:56.403Z,57.58
2018-05-08T07:07:04.452Z,58.15
2018-05-08T07:08:12.532Z,58.66
2018-05-08T07:09:20.615Z,59.14
2018-05-08T07:10:28.659Z,59.23
2018-05-08T07:11:36.710Z,59.91
2018-05-08T07:12:44.756Z,57.70
2018-05-08T07:13:52.858Z,56.08
2018-05-08T07:15:00.904Z,56.84
2018-05-08T07:16:09.097Z,57.64
2018-05-08T07:17:17.046Z,56.30
2018-05-08T07:18:25.105Z,56.97
2018-05-08T07:19:33.145Z,57.26
2018-05-08T07:20:41.239Z,55.15
2018-05-08T07:21:49.303Z,54.70
2018-05-08T07:22:57.371Z,55.08
2018-05-08T07:24:05.539Z,55.08
2018-05-08T07:25:13.499Z,53.26
2018-05-08T07:26:21.547Z,53.09
2018-05-08T07:27:29.644Z,53.34
2018-05-08T07:28:37.713Z,50.68
2018-05-08T07:29:45.790Z,50.20
2018-05-08T07:30:53.895Z,49.74
2018-05-08T07:32:01.899Z,47.44
2018-05-08T07:33:09.977Z,47.75
2018-05-08T07:34:18.045Z,46.72
2018-05-08T07:35:26.129Z,46.43
2018-05-08T07:36:34.186Z,45.87
2018-05-08T07:37:42.244Z,45.68
2018-05-08T07:38:50.345Z,45.68
2018-05-08T07:39:58.389Z,44.34
2018-05-08T07:41:06.532Z,44.45
2018-05-08T07:42:14.543Z,45.39
2018-05-08T07:43:22.604Z,45.87
2018-05-08T07:44:30.693Z,46.91
2018-05-08T07:45:38.766Z,46.91
2018-05-08T07:46:46.846Z,47.30
2018-05-08T07:47:54.908Z,46.41
2018-05-08T07:49:02.964Z,45.73
2018-05-08T07:50:11.057Z,44.51
2018-05-08T07:51:19.133Z,45.59
2018-05-08T07:52:27.182Z,45.28
2018-05-08T07:53:35.281Z,44.79
2018-05-08T07:54:43.332Z,45.32
2018-05-08T07:55:51.384Z,44.76
2018-05-08T07:56:59.493Z,43.85
2018-05-08T07:58:07.566Z,41.55
2018-05-08T07:59:15.635Z,41.28
2018-05-08T08:00:23.699Z,38.89
2018-05-08T08:01:31.760Z,37.95
2018-05-08T08:02:39.858Z,39.12
2018-05-08T08:03:47.933Z,38.54
2018-05-08T08:04:56.006Z,37.70
2018-05-08T08:06:04.098Z,35.78
2018-05-08T08:07:12.146Z,36.13
2018-05-08T08:08:20.240Z,37.56
2018-05-08T08:09:28.295Z,36.24
2018-05-08T08:10:36.390Z,37.60
2018-05-08T08:11:44.480Z,36.65
2018-05-08T08:12:52.539Z,36.18
2018-05-08T08:14:00.619Z,37.04
2018-05-08T08:15:08.702Z,37.73
2018-05-08T08:16:16.769Z,37.73
2018-05-08T08:17:24.871Z,37.75
2018-05-08T08:18:33.010Z,38.71
2018-05-08T08:19:41.022Z,35.73
2018-05-08T08:20:49.077Z,33.99
2018-05-08T08:21:57.164Z,35.23
2018-05-08T08:23:05.261Z,36.15
2018-05-08T08:24:13.352Z,37.62
2018-05-08T08:25:21.407Z,38.21
2018-05-08T08:26:29.490Z,37.15
2018-05-08T08:27:37.561Z,36.20
2018-05-08T08:28:45.665Z,34.07
2018-05-08T08:29:53.746Z,35.04
2018-05-08T08:31:01.815Z,35.15
2018-05-08T08:32:09.892Z,34.96
2018-05-08T08:33:18.011Z,36.12
2018-05-08T08:34:26.078Z,35.64
2018-05-08T08:35:34.203Z,34.11
2018-05-08T08:36:42.208Z,33.23
2018-05-08T08:37:50.289Z,34.11
2018-05-08T08:38:58.368Z,36.54
2018-05-08T08:40:06.476Z,35.19
2018-05-08T08:41:14.562Z,36.44
2018-05-08T08:42:22.626Z,34.41
2018-05-08T08:43:30.728Z,33.06
2018-05-08T08:44:38.802Z,33.73
2018-05-08T08:45:46.876Z,33.91
2018-05-08T08:46:54.959Z,34.39
2018-05-08T08:48:03.043Z,33.72
2018-05-08T08:49:11.186Z,34.41
2018-05-08T08:50:19.197Z,35.48
2018-05-08T08:51:27.278Z,36.46
2018-05-08T08:52:35.351Z,35.57
2018-05-08T08:53:43.442Z,38.68
2018-05-08T08:54:51.513Z,35.19
2018-05-08T08:55:59.662Z,33.15
2018-05-08T08:57:07.713Z,34.97
2018-05-08T08:58:15.765Z,36.43
2018-05-08T08:59:23.870Z,39.12
2018-05-08T09:00:31.930Z,36.90
2018-05-08T09:01:40.029Z,37.67
2018-05-08T09:02:48.097Z,34.96
2018-05-08T09:03:56.189Z,35.66
2018-05-08T09:05:04.268Z,35.35
2018-05-08T09:06:12.354Z,37.62
2018-05-08T09:07:20.448Z,39.97
2018-05-08T09:08:28.499Z,43.81
2018-05-08T09:09:36.598Z,42.94
2018-05-08T09:10:44.686Z,40.36
2018-05-08T09:11:52.744Z,41.42
2018-05-08T09:13:00.826Z,42.29
2018-05-08T09:14:08.893Z,41.13
2018-05-08T09:15:17.059Z,43.81
2018-05-08T09:16:25.069Z,46.42
2018-05-08T09:17:33.154Z,45.17
2018-05-08T09:18:41.193Z,44.97
2018-05-08T09:19:49.399Z,42.56
2018-05-08T09:20:57.347Z,46.42
2018-05-08T09:22:05.450Z,45.65
2018-05-08T09:23:13.502Z,41.50
2018-05-08T09:24:21.567Z,44.59
2018-05-08T09:25:29.644Z,44.97
2018-05-08T09:26:37.793Z,44.20
2018-05-08T09:27:45.901Z,45.04
2018-05-08T09:28:53.895Z,46.59
2018-05-08T09:30:01.929Z,43.98
2018-05-08T09:31:10.045Z,43.02
2018-05-08T09:32:18.090Z,46.64
2018-05-08T09:33:26.194Z,46.15
2018-05-08T09:34:34.253Z,48.11
2018-05-08T09:35:42.316Z,46.28
2018-05-08T09:36:50.404Z,43.96
2018-05-08T09:37:58.482Z,45.51
2018-05-08T09:39:06.546Z,45.79
2018-05-08T09:40:14.622Z,47.27
2018-05-08T09:41:22.706Z,47.07
2018-05-08T09:42:30.765Z,44.46
2018-05-08T09:43:38.823Z,47.45
2018-05-08T09:44:46.895Z,45.94
2018-05-08T09:45:54.977Z,45.26
2018-05-08T09:47:03.057Z,45.07
2018-05-08T09:48:11.122Z,44.01
2018-05-08T09:49:19.178Z,47.65
2018-05-08T09:50:27.236Z,45.82
2018-05-08T09:51:35.333Z,46.23
2018-05-08T09:52:43.424Z,44.78
2018-05-08T09:53:51.476Z,45.45
2018-05-08T09:54:59.553Z,44.49
2018-05-08T09:56:07.633Z,46.71
2018-05-08T09:57:15.697Z,46.54
2018-05-08T09:58:23.752Z,47.58
2018-05-08T09:59:31.806Z,45.96
2018-05-08T10:00:39.901Z,45.38
2018-05-08T10:01:47.964Z,44.60
2018-05-08T10:02:56.044Z,43.35
2018-05-08T10:04:04.105Z,45.96
2018-05-08T10:05:12.189Z,45.76
2018-05-08T10:06:20.253Z,42.39
2018-05-08T10:07:28.319Z,42.48
2018-05-08T10:08:36.431Z,46.23
2018-05-08T10:09:44.460Z,43.33
2018-05-08T10:10:52.534Z,47.00
2018-05-08T10:12:00.608Z,46.92
2018-05-08T10:13:08.652Z,48.08
2018-05-08T10:14:16.714Z,45.48
2018-05-08T10:15:24.821Z,44.43
2018-05-08T10:16:32.896Z,44.63
2018-05-08T10:17:40.951Z,43.28
2018-05-08T10:18:49.041Z,42.21
2018-05-08T10:19:57.117Z,44.59
2018-05-08T10:21:05.177Z,44.97
2018-05-08T10:22:13.220Z,47.00
2018-05-08T10:23:21.283Z,45.38
2018-05-08T10:24:29.353Z,45.28
2018-05-08T10:25:37.457Z,46.64
2018-05-08T10:26:45.529Z,42.31
2018-05-08T10:27:53.581Z,43.57
2018-05-08T10:29:01.646Z,45.50
2018-05-08T10:30:09.734Z,44.92
2018-05-08T10:31:17.782Z,40.86
2018-05-08T10:32:25.870Z,41.33
2018-05-08T10:33:33.954Z,45.38
2018-05-08T10:34:42.009Z,43.18
2018-05-08T10:35:50.060Z,45.69
2018-05-08T10:36:58.166Z,45.89
2018-05-08T10:38:06.242Z,44.56
2018-05-08T10:39:14.287Z,45.81
2018-05-08T10:40:22.353Z,40.59
2018-05-08T10:41:30.430Z,40.86
2018-05-08T10:42:38.584Z,41.71
2018-05-08T10:43:46.567Z,44.51
2018-05-08T10:44:54.647Z,42.60
2018-05-08T10:46:02.705Z,42.41
2018-05-08T10:47:10.776Z,41.42
2018-05-08T10:48:18.849Z,41.15
2018-05-08T10:49:26.921Z,41.33
2018-05-08T10:50:35.038Z,43.45
2018-05-08T10:51:43.060Z,43.08
2018-05-08T10:52:51.151Z,41.61
2018-05-08T10:53:59.216Z,42.87
2018-05-08T10:55:07.278Z,42.97
2018-05-08T10:56:15.353Z,41.71
2018-05-08T10:57:23.426Z,42.77
2018-05-08T10:58:31.489Z,42.77
2018-05-08T10:59:39.576Z,40.96
2018-05-08T11:00:47.628Z,42.58
2018-05-08T11:01:55.708Z,42.21
2018-05-08T11:03:03.758Z,42.31
2018-05-08T11:04:11.827Z,42.60
2018-05-08T11:05:19.915Z,42.60
2018-05-08T11:06:27.973Z,41.15
2018-05-08T11:07:36.047Z,41.61
2018-05-08T11:08:44.135Z,43.64
2018-05-08T11:09:52.196Z,43.35
2018-05-08T11:11:00.271Z,41.05
2018-05-08T11:12:08.336Z,42.99
2018-05-08T11:13:16.401Z,44.43
2018-05-08T11:14:24.488Z,42.04
2018-05-08T11:15:32.549Z,44.26
2018-05-08T11:16:40.622Z,44.48
2018-05-08T11:17:48.674Z,41.09
2018-05-08T11:18:56.749Z,39.84
2018-05-08T11:20:04.833Z,40.96
2018-05-08T11:21:12.923Z,42.39
2018-05-08T11:22:20.965Z,43.08
2018-05-08T11:23:29.039Z,40.38
2018-05-08T11:24:37.108Z,42.41
2018-05-08T11:25:45.229Z,41.35
2018-05-08T11:26:53.273Z,41.66
2018-05-08T11:28:01.320Z,39.82
2018-05-08T11:29:09.396Z,39.72
2018-05-08T11:30:17.481Z,40.86
2018-05-08T11:31:25.554Z,42.60
2018-05-08T11:32:33.593Z,42.72
2018-05-08T11:33:41.664Z,43.49
2018-05-08T11:34:49.742Z,39.92
2018-05-08T11:35:57.835Z,40.01
2018-05-08T11:37:05.865Z,43.28
2018-05-08T11:38:13.969Z,41.73
2018-05-08T11:39:22.116Z,40.88
2018-05-08T11:40:30.100Z,41.36
2018-05-08T11:41:38.157Z,40.11
2018-05-08T11:42:46.250Z,39.82
2018-05-08T11:43:54.296Z,41.05
2018-05-08T11:45:02.382Z,41.05
2018-05-08T11:46:10.443Z,42.62
2018-05-08T11:47:18.537Z,42.43
2018-05-08T11:48:26.579Z,41.66
2018-05-08T11:49:34.678Z,43.18
2018-05-08T11:50:42.715Z,41.85
2018-05-08T11:51:50.813Z,43.78
2018-05-08T11:52:58.868Z,43.98
2018-05-08T11:54:06.936Z,41.27
2018-05-08T11:55:15.006Z,41.27
2018-05-08T11:56:23.104Z,43.85
2018-05-08T11:57:31.148Z,43.18
2018-05-08T11:58:39.231Z,44.84
2018-05-08T11:59:47.303Z,41.85
2018-05-08T12:00:55.427Z,42.33
2018-05-08T12:02:03.446Z,42.65
2018-05-08T12:03:11.509Z,43.80
2018-05-08T12:04:19.580Z,40.42
2018-05-08T12:05:27.639Z,39.55
2018-05-08T12:06:35.709Z,40.59
2018-05-08T12:07:43.781Z,40.01
2018-05-08T12:08:51.861Z,40.50
2018-05-08T12:09:59.938Z,41.09
2018-05-08T12:11:07.982Z,41.09
2018-05-08T12:12:16.083Z,41.29
2018-05-08T12:13:24.137Z,41.77
2018-05-08T12:14:32.245Z,41.97
2018-05-08T12:15:40.276Z,39.86
2018-05-08T12:16:48.337Z,41.39
2018-05-08T12:17:56.437Z,42.28
2018-05-08T12:19:04.502Z,41.02
2018-05-08T12:20:12.577Z,41.89
2018-05-08T12:21:20.637Z,39.09
2018-05-08T12:22:28.704Z,42.16
2018-05-08T12:23:36.797Z,42.47
2018-05-08T12:24:44.865Z,38.60
2018-05-08T12:25:52.923Z,39.28
2018-05-08T12:27:00.995Z,38.29
2018-05-08T12:28:09.059Z,39.76
2018-05-08T12:29:17.148Z,39.18
2018-05-08T12:30:25.199Z,40.32
2018-05-08T12:31:33.275Z,39.16
2018-05-08T12:32:41.326Z,42.45
2018-05-08T12:33:49.421Z,38.79
2018-05-08T12:34:57.480Z,38.10
2018-05-08T12:36:05.566Z,41.39
2018-05-08T12:37:13.650Z,40.53
2018-05-08T12:38:21.690Z,41.31
2018-05-08T12:39:29.777Z,41.31
2018-05-08T12:40:37.848Z,41.11
2018-05-08T12:41:45.913Z,38.60
2018-05-08T12:42:53.971Z,41.97
2018-05-08T12:44:02.041Z,41.21
2018-05-08T12:45:10.132Z,41.11
2018-05-08T12:46:18.174Z,42.57
2018-05-08T12:47:26.259Z,41.02
2018-05-08T12:48:34.341Z,41.33
2018-05-08T12:49:42.403Z,42.30
2018-05-08T12:50:50.497Z,41.04
2018-05-08T12:51:58.572Z,41.33
2018-05-08T12:53:06.617Z,42.47
2018-05-08T12:54:14.702Z,43.46
2018-05-08T12:55:22.779Z,42.49
2018-05-08T12:56:30.848Z,41.72
2018-05-08T12:57:38.914Z,41.04
2018-05-08T12:58:46.970Z,39.69
2018-05-08T12:59:55.057Z,38.23
2018-05-08T13:01:03.106Z,40.17
2018-05-08T13:02:11.207Z,39.78
2018-05-08T13:03:19.280Z,41.42
2018-05-08T13:04:27.330Z,41.04
2018-05-08T13:05:35.407Z,38.71
2018-05-08T13:06:43.468Z,39.11
2018-05-08T13:07:51.529Z,41.24
2018-05-08T13:08:59.595Z,40.17
2018-05-08T13:10:07.689Z,41.04
2018-05-08T13:11:15.741Z,38.33
2018-05-08T13:12:23.842Z,39.69
2018-05-08T13:13:31.878Z,39.20
2018-05-08T13:14:39.963Z,39.78
2018-05-08T13:15:48.040Z,39.69
2018-05-08T13:16:56.119Z,38.71
2018-05-08T13:18:04.160Z,38.62
2018-05-08T13:19:12.236Z,41.14
2018-05-08T13:20:20.327Z,41.82
2018-05-08T13:21:28.390Z,39.20
2018-05-08T13:22:36.443Z,39.88
2018-05-08T13:23:44.638Z,42.00
2018-05-08T13:24:52.610Z,40.07
2018-05-08T13:26:00.667Z,39.78
2018-05-08T13:27:08.749Z,37.36
2018-05-08T13:28:16.916Z,37.65
2018-05-08T13:29:25.134Z,38.60
2018-05-08T13:30:32.968Z,38.50
2018-05-08T13:31:41.033Z,39.26
2018-05-08T13:32:49.104Z,40.23
2018-05-08T13:33:57.172Z,42.47
2018-05-08T13:35:05.241Z,42.86
2018-05-08T13:36:13.317Z,39.86
2018-05-08T13:37:21.373Z,39.57
2018-05-08T13:38:29.470Z,39.78
2018-05-08T13:39:37.536Z,39.29
2018-05-08T13:40:45.604Z,39.88
2018-05-08T13:41:53.686Z,38.70
2018-05-08T13:43:01.719Z,41.31
2018-05-08T13:44:09.826Z,43.34
2018-05-08T13:45:17.887Z,42.28
2018-05-08T13:46:25.952Z,41.99
2018-05-08T13:47:34.035Z,40.94
2018-05-08T13:48:42.074Z,40.17
2018-05-08T13:49:50.150Z,41.62
2018-05-08T13:50:58.220Z,42.40
2018-05-08T13:52:06.296Z,40.00
2018-05-08T13:53:14.378Z,37.77
2018-05-08T13:54:22.442Z,39.41
2018-05-08T13:55:30.492Z,39.70
2018-05-08T13:56:38.583Z,40.28
2018-05-08T13:57:46.669Z,38.73
2018-05-08T13:58:54.733Z,40.00
2018-05-08T14:00:02.794Z,41.91
2018-05-08T14:01:10.887Z,39.39
2018-05-08T14:02:18.932Z,41.62
2018-05-08T14:03:27.021Z,39.69
2018-05-08T14:04:35.101Z,40.75
2018-05-08T14:05:43.151Z,40.65
2018-05-08T14:06:51.247Z,40.07
2018-05-08T14:07:59.299Z,39.59
2018-05-08T14:09:07.421Z,41.31
2018-05-08T14:10:15.449Z,42.30
2018-05-08T14:11:23.515Z,39.88
2018-05-08T14:12:31.573Z,41.21
2018-05-08T14:13:39.648Z,39.86
2018-05-08T14:14:47.741Z,40.15
2018-05-08T14:15:55.774Z,38.79
2018-05-08T14:17:03.857Z,38.41
2018-05-08T14:18:11.927Z,39.09
2018-05-08T14:19:20.015Z,39.86
2018-05-08T14:20:28.105Z,39.09
2018-05-08T14:21:36.144Z,39.57
2018-05-08T14:22:44.228Z,40.05
2018-05-08T14:23:52.269Z,40.34
2018-05-08T14:25:00.495Z,40.44
2018-05-08T14:26:08.429Z,38.99
2018-05-08T14:27:16.508Z,39.28
2018-05-08T14:28:24.577Z,37.63
2018-05-08T14:29:32.648Z,37.13
2018-05-08T14:30:40.712Z,37.81
2018-05-08T14:31:48.790Z,37.32
2018-05-08T14:32:56.881Z,38.10
2018-05-08T14:34:04.935Z,37.23
2018-05-08T14:35:12.999Z,38.97
2018-05-08T14:36:21.083Z,39.06